sensor_id;sensor_type;location;lat;lon;timestamp;pressure;altitude;pressure_sealevel;temperature;humidity
11085;BME280;5596;46.826;8.650;2023-03-20T00:00:03;96503.63;;;7.73;100.00
11085;BME280;5596;46.826;8.650;2023-03-20T00:02:32;96499.88;;;7.74;100.00
11085;BME280;5596;46.826;8.650;2023-03-20T00:05:00;96509.41;;;7.70;100.00
11085;BME280;5596;46.826;8.650;2023-03-20T00:07:29;96501.75;;;7.67;100.00
11085;BME280;5596;46.826;8.650;2023-03-20T00:09:58;96506.09;;;7.62;100.00
11085;BME280;5596;46.826;8.650;2023-03-20T00:12:25;96511.88;;;7.58;100.00
11085;BME280;5596;46.826;8.650;2023-03-20T00:14:52;96515.19;;;7.54;100.00
11085;BME280;5596;46.826;8.650;2023-03-20T00:17:19;96511.47;;;7.48;100.00
11085;BME280;5596;46.826;8.650;2023-03-20T00:19:46;96513.53;;;7.46;100.00
11085;BME280;5596;46.826;8.650;2023-03-20T00:22:13;96512.72;;;7.46;100.00
11085;BME280;5596;46.826;8.650;2023-03-20T00:24:41;96516.44;;;7.45;100.00
11085;BME280;5596;46.826;8.650;2023-03-20T00:27:08;96520.56;;;7.47;100.00
11085;BME280;5596;46.826;8.650;2023-03-20T00:29:37;96527.16;;;7.51;100.00
11085;BME280;5596;46.826;8.650;2023-03-20T00:32:07;96530.09;;;7.56;100.00
11085;BME280;5596;46.826;8.650;2023-03-20T00:34:37;96531.31;;;7.60;100.00
11085;BME280;5596;46.826;8.650;2023-03-20T00:37:04;96541.44;;;7.65;100.00
11085;BME280;5596;46.826;8.650;2023-03-20T00:39:32;96541.03;;;7.62;100.00
11085;BME280;5596;46.826;8.650;2023-03-20T00:42:02;96542.88;;;7.54;100.00
11085;BME280;5596;46.826;8.650;2023-03-20T00:44:31;96549.50;;;7.52;100.00
11085;BME280;5596;46.826;8.650;2023-03-20T00:47:02;96545.97;;;7.51;100.00
11085;BME280;5596;46.826;8.650;2023-03-20T00:49:30;96543.72;;;7.55;100.00
11085;BME280;5596;46.826;8.650;2023-03-20T00:51:58;96553.84;;;7.59;100.00
11085;BME280;5596;46.826;8.650;2023-03-20T00:54:25;96546.19;;;7.63;100.00
11085;BME280;5596;46.826;8.650;2023-03-20T00:56:53;96551.78;;;7.62;100.00
11085;BME280;5596;46.826;8.650;2023-03-20T00:59:23;96541.44;;;7.45;100.00
11085;BME280;5596;46.826;8.650;2023-03-20T01:01:51;96537.09;;;7.38;100.00
11085;BME280;5596;46.826;8.650;2023-03-20T01:04:18;96547.41;;;7.34;100.00
11085;BME280;5596;46.826;8.650;2023-03-20T01:06:46;96532.13;;;7.35;100.00
11085;BME280;5596;46.826;8.650;2023-03-20T01:09:13;96537.94;;;7.38;100.00
11085;BME280;5596;46.826;8.650;2023-03-20T01:11:40;96530.91;;;7.37;100.00
11085;BME280;5596;46.826;8.650;2023-03-20T01:14:10;96537.50;;;7.35;100.00
11085;BME280;5596;46.826;8.650;2023-03-20T01:16:46;96531.28;;;7.34;100.00
11085;BME280;5596;46.826;8.650;2023-03-20T01:19:13;96528.00;;;7.39;100.00
11085;BME280;5596;46.826;8.650;2023-03-20T01:21:40;96524.69;;;7.43;100.00
11085;BME280;5596;46.826;8.650;2023-03-20T01:24:07;96530.06;;;7.50;100.00
11085;BME280;5596;46.826;8.650;2023-03-20T01:26:35;96527.38;;;7.43;100.00
11085;BME280;5596;46.826;8.650;2023-03-20T01:29:02;96521.19;;;7.36;100.00
11085;BME280;5596;46.826;8.650;2023-03-20T01:31:31;96509.59;;;7.16;100.00
11085;BME280;5596;46.826;8.650;2023-03-20T01:34:04;96511.44;;;7.09;100.00
11085;BME280;5596;46.826;8.650;2023-03-20T01:36:31;96507.91;;;7.02;100.00
11085;BME280;5596;46.826;8.650;2023-03-20T01:39:00;96508.31;;;6.99;100.00
11085;BME280;5596;46.826;8.650;2023-03-20T01:41:27;96507.72;;;6.97;100.00
11085;BME280;5596;46.826;8.650;2023-03-20T01:43:55;96499.66;;;6.97;100.00
11085;BME280;5596;46.826;8.650;2023-03-20T01:46:24;96494.69;;;6.94;100.00
11085;BME280;5596;46.826;8.650;2023-03-20T01:48:57;96502.13;;;6.92;100.00
11085;BME280;5596;46.826;8.650;2023-03-20T01:51:31;96503.56;;;6.88;100.00
11085;BME280;5596;46.826;8.650;2023-03-20T01:54:05;96492.84;;;6.94;100.00
11085;BME280;5596;46.826;8.650;2023-03-20T01:56:48;96496.16;;;7.03;100.00
11085;BME280;5596;46.826;8.650;2023-03-20T01:59:23;96501.53;;;7.09;100.00
11085;BME280;5596;46.826;8.650;2023-03-20T02:01:51;96497.81;;;7.10;100.00
11085;BME280;5596;46.826;8.650;2023-03-20T02:04:24;96499.47;;;7.11;100.00
11085;BME280;5596;46.826;8.650;2023-03-20T02:07:03;96497.19;;;7.15;100.00
11085;BME280;5596;46.826;8.650;2023-03-20T02:09:48;96499.28;;;7.19;100.00
11085;BME280;5596;46.826;8.650;2023-03-20T02:12:26;96501.56;;;7.22;100.00
11085;BME280;5596;46.826;8.650;2023-03-20T02:14:59;96504.00;;;7.24;100.00
11085;BME280;5596;46.826;8.650;2023-03-20T02:17:48;96500.72;;;7.29;100.00
11085;BME280;5596;46.826;8.650;2023-03-20T02:20:20;96503.59;;;7.34;100.00
11085;BME280;5596;46.826;8.650;2023-03-20T02:26:01;96507.31;;;7.26;100.00
11085;BME280;5596;46.826;8.650;2023-03-20T02:28:43;96499.47;;;7.18;100.00
11085;BME280;5596;46.826;8.650;2023-03-20T02:31:29;96506.69;;;7.11;100.00
11085;BME280;5596;46.826;8.650;2023-03-20T02:34:10;96511.44;;;7.15;100.00
11085;BME280;5596;46.826;8.650;2023-03-20T02:36:49;96511.66;;;7.20;100.00
11085;BME280;5596;46.826;8.650;2023-03-20T02:39:29;96514.16;;;7.29;100.00
11085;BME280;5596;46.826;8.650;2023-03-20T02:42:02;96511.47;;;7.35;100.00
11085;BME280;5596;46.826;8.650;2023-03-20T02:44:34;96516.84;;;7.42;100.00
11085;BME280;5596;46.826;8.650;2023-03-20T02:47:06;96518.72;;;7.48;100.00
11085;BME280;5596;46.826;8.650;2023-03-20T02:49:45;96520.13;;;7.50;100.00
11085;BME280;5596;46.826;8.650;2023-03-20T02:52:15;96518.09;;;7.46;100.00
11085;BME280;5596;46.826;8.650;2023-03-20T02:54:49;96520.16;;;7.44;100.00
11085;BME280;5596;46.826;8.650;2023-03-20T02:57:22;96520.56;;;7.47;100.00
11085;BME280;5596;46.826;8.650;2023-03-20T02:59:53;96514.16;;;7.48;100.00
11085;BME280;5596;46.826;8.650;2023-03-20T03:02:21;96520.56;;;7.47;100.00
11085;BME280;5596;46.826;8.650;2023-03-20T03:04:54;96525.50;;;7.50;100.00
11085;BME280;5596;46.826;8.650;2023-03-20T03:07:23;96525.94;;;7.54;100.00
11085;BME280;5596;46.826;8.650;2023-03-20T03:09:55;96527.16;;;7.58;100.00
11085;BME280;5596;46.826;8.650;2023-03-20T03:12:26;96529.47;;;7.54;100.00
11085;BME280;5596;46.826;8.650;2023-03-20T03:14:58;96529.47;;;7.54;100.00
11085;BME280;5596;46.826;8.650;2023-03-20T03:17:28;96528.44;;;7.55;100.00
11085;BME280;5596;46.826;8.650;2023-03-20T03:20:00;96537.91;;;7.58;100.00
11085;BME280;5596;46.826;8.650;2023-03-20T03:22:31;96541.88;;;7.55;100.00
11085;BME280;5596;46.826;8.650;2023-03-20T03:25:00;96547.84;;;7.57;100.00
11085;BME280;5596;46.826;8.650;2023-03-20T03:27:28;96540.19;;;7.61;100.00
11085;BME280;5596;46.826;8.650;2023-03-20T03:30:02;96543.50;;;7.63;100.00
11085;BME280;5596;46.826;8.650;2023-03-20T03:32:30;96544.75;;;7.60;100.00
11085;BME280;5596;46.826;8.650;2023-03-20T03:34:58;96543.50;;;7.63;100.00
11085;BME280;5596;46.826;8.650;2023-03-20T03:37:28;96553.84;;;7.59;100.00
11085;BME280;5596;46.826;8.650;2023-03-20T03:40:02;96554.88;;;7.58;100.00
11085;BME280;5596;46.826;8.650;2023-03-20T03:42:32;96557.16;;;7.62;100.00
11085;BME280;5596;46.826;8.650;2023-03-20T03:45:02;96558.81;;;7.63;100.00
11085;BME280;5596;46.826;8.650;2023-03-20T03:47:31;96564.38;;;7.61;100.00
11085;BME280;5596;46.826;8.650;2023-03-20T03:50:01;96561.06;;;7.59;100.00
11085;BME280;5596;46.826;8.650;2023-03-20T03:52:29;96561.50;;;7.56;100.00
11085;BME280;5596;46.826;8.650;2023-03-20T03:54:58;96563.56;;;7.60;100.00
11085;BME280;5596;46.826;8.650;2023-03-20T03:57:30;96565.84;;;7.64;100.00
11085;BME280;5596;46.826;8.650;2023-03-20T03:59:59;96566.88;;;7.63;100.00
11085;BME280;5596;46.826;8.650;2023-03-20T04:02:43;96568.94;;;7.60;100.00
11085;BME280;5596;46.826;8.650;2023-03-20T04:05:10;96570.38;;;7.56;100.00
11085;BME280;5596;46.826;8.650;2023-03-20T04:07:41;96570.38;;;7.56;100.00
11085;BME280;5596;46.826;8.650;2023-03-20T04:10:10;96572.66;;;7.59;100.00
11085;BME280;5596;46.826;8.650;2023-03-20T04:12:40;96568.09;;;7.60;100.00
11085;BME280;5596;46.826;8.650;2023-03-20T04:15:09;96575.13;;;7.61;100.00
11085;BME280;5596;46.826;8.650;2023-03-20T04:17:36;96576.78;;;7.55;100.00
11085;BME280;5596;46.826;8.650;2023-03-20T04:20:03;96578.84;;;7.53;100.00
11085;BME280;5596;46.826;8.650;2023-03-20T04:22:30;96585.44;;;7.57;100.00
11085;BME280;5596;46.826;8.650;2023-03-20T04:25:04;96591.47;;;7.66;100.00
11085;BME280;5596;46.826;8.650;2023-03-20T04:27:32;96589.84;;;7.65;100.00
11085;BME280;5596;46.826;8.650;2023-03-20T04:30:02;96595.22;;;7.65;100.00
11085;BME280;5596;46.826;8.650;2023-03-20T04:33:05;96590.22;;;7.62;100.00
11085;BME280;5596;46.826;8.650;2023-03-20T04:35:55;96590.84;;;7.57;100.00
11085;BME280;5596;46.826;8.650;2023-03-20T04:38:23;96592.09;;;7.55;100.00
11085;BME280;5596;46.826;8.650;2023-03-20T04:40:54;96592.69;;;7.50;100.00
11085;BME280;5596;46.826;8.650;2023-03-20T04:43:24;96593.72;;;7.49;100.00
11085;BME280;5596;46.826;8.650;2023-03-20T04:45:52;96592.69;;;7.50;100.00
11085;BME280;5596;46.826;8.650;2023-03-20T04:48:20;96588.34;;;7.49;100.00
11085;BME280;5596;46.826;8.650;2023-03-20T04:50:46;96591.03;;;7.49;100.00
11085;BME280;5596;46.826;8.650;2023-03-20T04:53:17;96599.72;;;7.51;100.00
11085;BME280;5596;46.826;8.650;2023-03-20T04:55:48;96594.53;;;7.50;100.00
11085;BME280;5596;46.826;8.650;2023-03-20T04:58:15;96597.66;;;7.47;100.00
11085;BME280;5596;46.826;8.650;2023-03-20T05:00:43;96597.03;;;7.45;100.00
11085;BME280;5596;46.826;8.650;2023-03-20T05:03:11;96592.69;;;7.44;100.00
11085;BME280;5596;46.826;8.650;2023-03-20T05:05:38;96593.91;;;7.41;100.00
11085;BME280;5596;46.826;8.650;2023-03-20T05:08:06;96591.22;;;7.41;100.00
11085;BME280;5596;46.826;8.650;2023-03-20T05:10:36;96593.50;;;7.38;100.00
11085;BME280;5596;46.826;8.650;2023-03-20T05:13:12;96598.69;;;7.39;100.00
11085;BME280;5596;46.826;8.650;2023-03-20T05:16:02;96605.28;;;7.37;100.00
11085;BME280;5596;46.826;8.650;2023-03-20T05:18:50;96606.72;;;7.33;100.00
11085;BME280;5596;46.826;8.650;2023-03-20T05:21:41;96610.22;;;7.33;100.00
11085;BME280;5596;46.826;8.650;2023-03-20T05:24:11;96610.22;;;7.33;100.00
11085;BME280;5596;46.826;8.650;2023-03-20T05:26:47;96617.69;;;7.31;100.00
11085;BME280;5596;46.826;8.650;2023-03-20T05:29:17;96614.75;;;7.26;100.00
11085;BME280;5596;46.826;8.650;2023-03-20T05:32:03;96618.47;;;7.25;100.00
11085;BME280;5596;46.826;8.650;2023-03-20T05:34:58;96615.16;;;7.23;100.00
11085;BME280;5596;46.826;8.650;2023-03-20T05:37:53;96612.25;;;7.18;100.00
11085;BME280;5596;46.826;8.650;2023-03-20T05:40:41;96615.13;;;7.16;100.00
11085;BME280;5596;46.826;8.650;2023-03-20T05:43:11;96615.16;;;7.23;100.00
11085;BME280;5596;46.826;8.650;2023-03-20T05:45:53;96616.41;;;7.27;100.00
11085;BME280;5596;46.826;8.650;2023-03-20T05:48:38;96611.44;;;7.24;100.00
11085;BME280;5596;46.826;8.650;2023-03-20T05:51:29;96612.88;;;7.20;100.00
11085;BME280;5596;46.826;8.650;2023-03-20T05:54:10;96618.91;;;7.22;100.00
11085;BME280;5596;46.826;8.650;2023-03-20T05:57:01;96608.56;;;7.26;100.00
11085;BME280;5596;46.826;8.650;2023-03-20T05:59:48;96609.41;;;7.33;100.00
11085;BME280;5596;46.826;8.650;2023-03-20T06:02:43;96610.84;;;7.35;100.00
11085;BME280;5596;46.826;8.650;2023-03-20T06:05:28;96608.16;;;7.35;100.00
11085;BME280;5596;46.826;8.650;2023-03-20T06:07:57;96609.81;;;7.36;100.00
11085;BME280;5596;46.826;8.650;2023-03-20T06:10:24;96607.34;;;7.35;100.00
11085;BME280;5596;46.826;8.650;2023-03-20T06:12:52;96616.44;;;7.34;100.00
11085;BME280;5596;46.826;8.650;2023-03-20T06:15:26;96612.06;;;7.26;100.00
11085;BME280;5596;46.826;8.650;2023-03-20T06:18:03;96621.34;;;7.23;100.00
11085;BME280;5596;46.826;8.650;2023-03-20T06:20:31;96622.63;;;7.28;100.00
11085;BME280;5596;46.826;8.650;2023-03-20T06:23:02;96632.97;;;7.31;100.00
11085;BME280;5596;46.826;8.650;2023-03-20T06:25:29;96638.75;;;7.34;100.00
11085;BME280;5596;46.826;8.650;2023-03-20T06:27:57;96635.22;;;7.34;100.00
11085;BME280;5596;46.826;8.650;2023-03-20T06:30:24;96640.19;;;7.30;100.00
11085;BME280;5596;46.826;8.650;2023-03-20T06:32:52;96646.59;;;7.29;100.00
11085;BME280;5596;46.826;8.650;2023-03-20T06:35:22;96644.94;;;7.35;100.00
11085;BME280;5596;46.826;8.650;2023-03-20T06:37:49;96651.53;;;7.32;100.00
11085;BME280;5596;46.826;8.650;2023-03-20T06:40:22;96644.97;;;7.41;100.00
11085;BME280;5596;46.826;8.650;2023-03-20T06:42:50;96648.50;;;7.48;100.00
11085;BME280;5596;46.826;8.650;2023-03-20T06:45:17;96647.06;;;7.52;100.00
11085;BME280;5596;46.826;8.650;2023-03-20T06:47:54;96641.47;;;7.47;100.00
11085;BME280;5596;46.826;8.650;2023-03-20T06:50:20;96640.03;;;7.45;100.00
11085;BME280;5596;46.826;8.650;2023-03-20T06:52:47;96647.44;;;7.43;100.00
11085;BME280;5596;46.826;8.650;2023-03-20T06:58:21;96654.72;;;7.55;100.00
11085;BME280;5596;46.826;8.650;2023-03-20T07:00:50;96654.53;;;7.64;100.00
11085;BME280;5596;46.826;8.650;2023-03-20T07:03:19;96650.38;;;7.54;100.00
11085;BME280;5596;46.826;8.650;2023-03-20T07:05:47;96648.28;;;7.50;100.00
11085;BME280;5596;46.826;8.650;2023-03-20T07:08:16;96642.94;;;7.56;100.00
11085;BME280;5596;46.826;8.650;2023-03-20T07:10:42;96640.66;;;7.53;100.00
11085;BME280;5596;46.826;8.650;2023-03-20T07:13:13;96634.88;;;7.56;100.00
11085;BME280;5596;46.826;8.650;2023-03-20T07:15:42;96635.91;;;7.55;100.00
11085;BME280;5596;46.826;8.650;2023-03-20T07:18:19;96643.34;;;7.53;100.00
11085;BME280;5596;46.826;8.650;2023-03-20T07:20:49;96636.31;;;7.59;100.00
11085;BME280;5596;46.826;8.650;2023-03-20T07:23:20;96642.13;;;7.69;100.00
11085;BME280;5596;46.826;8.650;2023-03-20T07:25:47;96644.41;;;7.79;100.00
11085;BME280;5596;46.826;8.650;2023-03-20T07:28:16;96649.19;;;7.90;100.00
11085;BME280;5596;46.826;8.650;2023-03-20T07:30:51;96654.13;;;7.93;100.00
11085;BME280;5596;46.826;8.650;2023-03-20T07:33:22;96657.44;;;7.88;100.00
11085;BME280;5596;46.826;8.650;2023-03-20T07:35:54;96654.56;;;7.96;100.00
11085;BME280;5596;46.826;8.650;2023-03-20T07:38:21;96652.06;;;8.08;100.00
11085;BME280;5596;46.826;8.650;2023-03-20T07:41:03;96658.06;;;8.10;100.00
11085;BME280;5596;46.826;8.650;2023-03-20T07:43:32;96664.69;;;8.14;100.00
11085;BME280;5596;46.826;8.650;2023-03-20T07:46:18;96671.53;;;8.23;100.00
11085;BME280;5596;46.826;8.650;2023-03-20T07:48:45;96674.63;;;8.27;100.00
11085;BME280;5596;46.826;8.650;2023-03-20T07:51:15;96667.81;;;8.38;100.00
11085;BME280;5596;46.826;8.650;2023-03-20T07:53:42;96674.63;;;8.47;100.00
11085;BME280;5596;46.826;8.650;2023-03-20T07:56:17;96676.91;;;8.50;100.00
11085;BME280;5596;46.826;8.650;2023-03-20T07:58:45;96674.19;;;8.63;100.00
11085;BME280;5596;46.826;8.650;2023-03-20T08:01:12;96670.66;;;8.69;100.00
11085;BME280;5596;46.826;8.650;2023-03-20T08:03:43;96666.91;;;8.77;100.00
11085;BME280;5596;46.826;8.650;2023-03-20T08:06:10;96659.03;;;8.82;100.00
11085;BME280;5596;46.826;8.650;2023-03-20T08:08:37;96664.22;;;8.83;100.00
11085;BME280;5596;46.826;8.650;2023-03-20T08:11:04;96664.00;;;8.78;100.00
11085;BME280;5596;46.826;8.650;2023-03-20T08:13:31;96653.44;;;8.83;100.00
11085;BME280;5596;46.826;8.650;2023-03-20T08:16:07;96648.25;;;8.88;100.00
11085;BME280;5596;46.826;8.650;2023-03-20T08:18:34;96647.59;;;8.99;100.00
11085;BME280;5596;46.826;8.650;2023-03-20T08:21:02;96646.09;;;9.03;100.00
11085;BME280;5596;46.826;8.650;2023-03-20T08:23:31;96640.91;;;9.08;100.00
11085;BME280;5596;46.826;8.650;2023-03-20T08:25:58;96638.56;;;9.19;100.00
11085;BME280;5596;46.826;8.650;2023-03-20T08:28:28;96638.13;;;9.28;100.00
11085;BME280;5596;46.826;8.650;2023-03-20T08:30:55;96634.19;;;9.31;100.00
11085;BME280;5596;46.826;8.650;2023-03-20T08:33:22;96630.19;;;9.40;100.00
11085;BME280;5596;46.826;8.650;2023-03-20T08:35:56;96619.66;;;9.63;100.00
11085;BME280;5596;46.826;8.650;2023-03-20T08:38:25;96612.09;;;9.78;100.00
11085;BME280;5596;46.826;8.650;2023-03-20T08:40:52;96601.56;;;10.02;100.00
11085;BME280;5596;46.826;8.650;2023-03-20T08:43:22;96597.28;;;10.12;100.00
11085;BME280;5596;46.826;8.650;2023-03-20T08:45:49;96594.84;;;10.36;100.00
11085;BME280;5596;46.826;8.650;2023-03-20T08:48:16;96590.28;;;10.54;100.00
11085;BME280;5596;46.826;8.650;2023-03-20T08:50:43;96587.41;;;10.49;100.00
11085;BME280;5596;46.826;8.650;2023-03-20T08:53:10;96586.97;;;10.52;100.00
11085;BME280;5596;46.826;8.650;2023-03-20T08:55:55;96591.88;;;10.62;100.00
11085;BME280;5596;46.826;8.650;2023-03-20T08:58:22;96592.84;;;10.68;100.00
11085;BME280;5596;46.826;8.650;2023-03-20T09:00:49;96590.78;;;10.81;100.00
11085;BME280;5596;46.826;8.650;2023-03-20T09:03:19;96607.22;;;10.98;100.00
11085;BME280;5596;46.826;8.650;2023-03-20T09:05:46;96605.66;;;11.09;100.00
11085;BME280;5596;46.826;8.650;2023-03-20T09:08:14;96612.59;;;11.16;100.00
11085;BME280;5596;46.826;8.650;2023-03-20T09:10:41;96600.13;;;11.33;100.00
11085;BME280;5596;46.826;8.650;2023-03-20T09:13:09;96596.69;;;11.56;100.00
11085;BME280;5596;46.826;8.650;2023-03-20T09:15:36;96596.91;;;11.85;100.00
11085;BME280;5596;46.826;8.650;2023-03-20T09:18:02;96603.22;;;12.32;100.00
11085;BME280;5596;46.826;8.650;2023-03-20T09:20:33;96610.16;;;12.74;100.00
11085;BME280;5596;46.826;8.650;2023-03-20T09:23:00;96611.41;;;12.95;100.00
11085;BME280;5596;46.826;8.650;2023-03-20T09:25:28;96617.78;;;13.01;100.00
11085;BME280;5596;46.826;8.650;2023-03-20T09:27:54;96616.44;;;13.03;100.00
11085;BME280;5596;46.826;8.650;2023-03-20T09:30:24;96621.50;;;13.11;100.00
11085;BME280;5596;46.826;8.650;2023-03-20T09:32:51;96618.78;;;13.11;100.00
11085;BME280;5596;46.826;8.650;2023-03-20T09:35:18;96615.50;;;13.09;100.00
11085;BME280;5596;46.826;8.650;2023-03-20T09:37:48;96622.00;;;12.97;100.00
11085;BME280;5596;46.826;8.650;2023-03-20T09:40:22;96620.72;;;12.99;100.00
11085;BME280;5596;46.826;8.650;2023-03-20T09:42:52;96621.53;;;13.00;100.00
11085;BME280;5596;46.826;8.650;2023-03-20T09:45:21;96615.63;;;13.03;100.00
11085;BME280;5596;46.826;8.650;2023-03-20T09:47:56;96619.97;;;13.04;100.00
11085;BME280;5596;46.826;8.650;2023-03-20T09:50:32;96619.38;;;13.02;100.00
11085;BME280;5596;46.826;8.650;2023-03-20T09:53:02;96619.53;;;12.95;100.00
11085;BME280;5596;46.826;8.650;2023-03-20T09:55:32;96627.44;;;12.97;100.00
11085;BME280;5596;46.826;8.650;2023-03-20T09:58:02;96618.47;;;13.08;100.00
11085;BME280;5596;46.826;8.650;2023-03-20T10:00:30;96615.25;;;13.11;100.00
11085;BME280;5596;46.826;8.650;2023-03-20T10:03:01;96615.84;;;13.13;100.00
11085;BME280;5596;46.826;8.650;2023-03-20T10:05:33;96620.06;;;13.32;100.00
11085;BME280;5596;46.826;8.650;2023-03-20T10:08:02;96606.81;;;13.47;100.00
11085;BME280;5596;46.826;8.650;2023-03-20T10:10:32;96613.06;;;13.48;100.00
11085;BME280;5596;46.826;8.650;2023-03-20T10:13:07;96604.31;;;13.46;100.00
11085;BME280;5596;46.826;8.650;2023-03-20T10:15:38;96606.31;;;13.50;99.17
11085;BME280;5596;46.826;8.650;2023-03-20T10:18:11;96605.34;;;13.56;98.40
11085;BME280;5596;46.826;8.650;2023-03-20T10:20:42;96599.84;;;13.51;99.06
11085;BME280;5596;46.826;8.650;2023-03-20T10:23:15;96603.81;;;13.60;98.21
11085;BME280;5596;46.826;8.650;2023-03-20T10:25:45;96594.88;;;13.77;97.08
11085;BME280;5596;46.826;8.650;2023-03-20T10:28:14;96595.34;;;13.74;96.04
11085;BME280;5596;46.826;8.650;2023-03-20T10:30:55;96586.16;;;13.75;96.75
11085;BME280;5596;46.826;8.650;2023-03-20T10:33:31;96594.06;;;13.76;95.39
11085;BME280;5596;46.826;8.650;2023-03-20T10:36:08;96591.75;;;13.85;93.88
11085;BME280;5596;46.826;8.650;2023-03-20T10:38:38;96592.00;;;13.83;93.39
11085;BME280;5596;46.826;8.650;2023-03-20T10:41:08;96588.69;;;13.81;96.05
11085;BME280;5596;46.826;8.650;2023-03-20T10:43:37;96583.28;;;13.98;94.16
11085;BME280;5596;46.826;8.650;2023-03-20T10:46:07;96589.78;;;14.14;95.02
11085;BME280;5596;46.826;8.650;2023-03-20T10:48:40;96584.34;;;14.14;92.50
11085;BME280;5596;46.826;8.650;2023-03-20T10:51:10;96581.88;;;14.12;92.59
11085;BME280;5596;46.826;8.650;2023-03-20T10:53:40;96574.56;;;14.13;90.62
11085;BME280;5596;46.826;8.650;2023-03-20T10:56:11;96573.66;;;14.24;91.71
11085;BME280;5596;46.826;8.650;2023-03-20T10:58:39;96567.56;;;14.33;89.73
11085;BME280;5596;46.826;8.650;2023-03-20T11:01:09;96558.22;;;14.41;91.96
11085;BME280;5596;46.826;8.650;2023-03-20T11:03:36;96560.69;;;14.43;90.04
11085;BME280;5596;46.826;8.650;2023-03-20T11:06:07;96556.91;;;14.44;90.53
11085;BME280;5596;46.826;8.650;2023-03-20T11:08:38;96555.03;;;14.66;93.07
11085;BME280;5596;46.826;8.650;2023-03-20T11:11:06;96558.03;;;14.86;91.66
11085;BME280;5596;46.826;8.650;2023-03-20T11:13:33;96558.59;;;14.88;93.71
11085;BME280;5596;46.826;8.650;2023-03-20T11:16:13;96559.09;;;14.85;91.03
11085;BME280;5596;46.826;8.650;2023-03-20T11:18:42;96562.50;;;14.97;89.07
11085;BME280;5596;46.826;8.650;2023-03-20T11:21:14;96567.94;;;14.97;88.70
11085;BME280;5596;46.826;8.650;2023-03-20T11:23:44;96573.00;;;14.89;85.69
11085;BME280;5596;46.826;8.650;2023-03-20T11:26:13;96562.41;;;14.87;87.07
11085;BME280;5596;46.826;8.650;2023-03-20T11:28:45;96558.34;;;15.11;89.31
11085;BME280;5596;46.826;8.650;2023-03-20T11:31:16;96557.78;;;15.09;88.16
11085;BME280;5596;46.826;8.650;2023-03-20T11:33:44;96539.88;;;15.13;85.65
11085;BME280;5596;46.826;8.650;2023-03-20T11:36:19;96548.91;;;15.19;87.36
11085;BME280;5596;46.826;8.650;2023-03-20T11:39:24;96546.06;;;15.09;85.01
11085;BME280;5596;46.826;8.650;2023-03-20T11:48:43;96539.47;;;15.27;82.87
11085;BME280;5596;46.826;8.650;2023-03-20T11:54:51;96544.91;;;15.27;82.95
11085;BME280;5596;46.826;8.650;2023-03-20T11:57:30;96543.78;;;15.23;82.11
11085;BME280;5596;46.826;8.650;2023-03-20T11:59:59;96556.19;;;15.13;84.39
11085;BME280;5596;46.826;8.650;2023-03-20T12:02:30;96556.00;;;14.76;85.47
11085;BME280;5596;46.826;8.650;2023-03-20T12:04:58;96555.34;;;14.69;85.61
11085;BME280;5596;46.826;8.650;2023-03-20T12:07:26;96548.53;;;14.89;87.16
11085;BME280;5596;46.826;8.650;2023-03-20T12:09:56;96543.13;;;14.72;86.13
11085;BME280;5596;46.826;8.650;2023-03-20T12:12:26;96541.91;;;14.80;85.54
11085;BME280;5596;46.826;8.650;2023-03-20T12:14:57;96544.28;;;14.54;85.64
11085;BME280;5596;46.826;8.650;2023-03-20T12:17:35;96547.16;;;14.48;84.55
11085;BME280;5596;46.826;8.650;2023-03-20T12:20:09;96533.66;;;14.53;85.35
11085;BME280;5596;46.826;8.650;2023-03-20T12:22:39;96536.00;;;14.66;84.06
11085;BME280;5596;46.826;8.650;2023-03-20T12:25:15;96543.84;;;14.84;80.77
11085;BME280;5596;46.826;8.650;2023-03-20T12:27:45;96542.59;;;15.13;83.00
11085;BME280;5596;46.826;8.650;2023-03-20T12:30:15;96543.13;;;15.59;81.50
11085;BME280;5596;46.826;8.650;2023-03-20T12:32:45;96541.66;;;15.51;77.41
11085;BME280;5596;46.826;8.650;2023-03-20T12:35:14;96545.84;;;15.37;78.13
11085;BME280;5596;46.826;8.650;2023-03-20T12:37:43;96536.72;;;15.22;76.55
11085;BME280;5596;46.826;8.650;2023-03-20T12:40:13;96531.50;;;14.55;78.25
11085;BME280;5596;46.826;8.650;2023-03-20T12:42:42;96535.47;;;14.14;80.57
11085;BME280;5596;46.826;8.650;2023-03-20T12:45:15;96549.47;;;14.22;80.18
11085;BME280;5596;46.826;8.650;2023-03-20T12:47:47;96555.06;;;13.99;81.30
11085;BME280;5596;46.826;8.650;2023-03-20T12:50:18;96553.09;;;13.78;83.35
11085;BME280;5596;46.826;8.650;2023-03-20T12:52:50;96547.31;;;13.57;84.56
11085;BME280;5596;46.826;8.650;2023-03-20T12:55:32;96545.00;;;13.49;85.83
11085;BME280;5596;46.826;8.650;2023-03-20T12:58:05;96541.03;;;13.40;86.53
11085;BME280;5596;46.826;8.650;2023-03-20T13:00:36;96548.00;;;13.36;84.60
11085;BME280;5596;46.826;8.650;2023-03-20T13:03:06;96541.63;;;13.42;86.82
11085;BME280;5596;46.826;8.650;2023-03-20T13:05:39;96542.31;;;13.66;83.26
11085;BME280;5596;46.826;8.650;2023-03-20T13:08:24;96538.72;;;13.94;84.76
11085;BME280;5596;46.826;8.650;2023-03-20T13:10:59;96545.78;;;13.95;83.82
11085;BME280;5596;46.826;8.650;2023-03-20T13:13:30;96542.97;;;13.90;82.66
11085;BME280;5596;46.826;8.650;2023-03-20T13:16:02;96541.44;;;13.94;82.55
11085;BME280;5596;46.826;8.650;2023-03-20T13:18:36;96548.00;;;13.98;81.90
11085;BME280;5596;46.826;8.650;2023-03-20T13:21:07;96537.31;;;13.91;82.78
11085;BME280;5596;46.826;8.650;2023-03-20T13:23:37;96537.31;;;14.08;81.55
11085;BME280;5596;46.826;8.650;2023-03-20T13:28:51;96528.91;;;14.65;78.79
11085;BME280;5596;46.826;8.650;2023-03-20T13:31:33;96533.44;;;14.76;78.28
11085;BME280;5596;46.826;8.650;2023-03-20T13:34:04;96535.41;;;15.02;78.34
11085;BME280;5596;46.826;8.650;2023-03-20T13:36:37;96523.00;;;15.11;77.49
11085;BME280;5596;46.826;8.650;2023-03-20T13:39:10;96524.38;;;15.14;75.97
11085;BME280;5596;46.826;8.650;2023-03-20T13:41:39;96516.84;;;15.21;77.62
11085;BME280;5596;46.826;8.650;2023-03-20T13:44:07;96523.16;;;15.27;75.87
11085;BME280;5596;46.826;8.650;2023-03-20T13:46:36;96523.88;;;15.44;75.02
11085;BME280;5596;46.826;8.650;2023-03-20T13:49:07;96521.94;;;15.39;74.67
11085;BME280;5596;46.826;8.650;2023-03-20T13:51:38;96521.63;;;15.36;75.09